Time;durP1;ratioP1;P1;durP2;ratioP2;P2;SDS_P1;SDS_P2;PMS_P1;PMS_P2;Temp;Humidity;BMP_temperature;BMP_pressure;BME280_temperature;BME280_humidity;BME280_pressure;Samples;Min_cycle;Max_cycle;Signal;HPM_P1;HPM_P2
2022/12/31 00:00:32;;;;;;;0.93;0.50;;;;;;;;;;5006735;28;20117;-69
2022/12/31 00:02:57;;;;;;;1.08;0.55;;;;;;;;;;5010438;28;20025;-69
2022/12/31 00:05:23;;;;;;;1.33;0.50;;;;;;;;;;5009499;28;20026;-69
2022/12/31 00:07:48;;;;;;;1.15;0.55;;;;;;;;;;5009016;28;20021;-70
2022/12/31 00:10:13;;;;;;;0.83;0.47;;;;;;;;;;5004572;28;20487;-69
2022/12/31 00:12:38;;;;;;;4.43;0.22;;;;;;;;;;5004208;28;20348;-69
2022/12/31 00:15:04;;;;;;;4.03;0.30;;;;;;;;;;5006866;28;20069;-69
2022/12/31 00:17:29;;;;;;;0.50;0.30;;;;;;;;;;5008687;28;20034;-69
2022/12/31 00:19:54;;;;;;;1.43;0.83;;;;;;;;;;5007934;28;20067;-69
2022/12/31 00:22:19;;;;;;;0.10;0.10;;;;;;;;;;5009293;28;20292;-69
2022/12/31 00:24:45;;;;;;;2.13;0.40;;;;;;;;;;5005275;28;20301;-69
2022/12/31 00:27:10;;;;;;;1.38;0.30;;;;;;;;;;5006125;28;20033;-69
2022/12/31 00:29:35;;;;;;;0.97;0.50;;;;;;;;;;5005624;28;20110;-69
2022/12/31 00:32:00;;;;;;;0.32;0.28;;;;;;;;;;5006326;28;20296;-69
2022/12/31 00:34:26;;;;;;;0.50;0.20;;;;;;;;;;5009429;28;20068;-69
2022/12/31 00:36:51;;;;;;;1.77;0.43;;;;;;;;;;5007852;28;20312;-69
2022/12/31 00:39:16;;;;;;;2.28;0.50;;;;;;;;;;5009032;28;20026;-69
2022/12/31 00:41:42;;;;;;;1.20;0.60;;;;;;;;;;5005759;28;20105;-69
2022/12/31 00:44:08;;;;;;;0.68;0.30;;;;;;;;;;5009764;28;20264;-69
2022/12/31 00:46:33;;;;;;;0.25;0.25;;;;;;;;;;5008374;28;20017;-69
2022/12/31 00:48:58;;;;;;;0.50;0.30;;;;;;;;;;5008268;28;20018;-69
2022/12/31 00:51:26;;;;;;;0.80;0.43;;;;;;;;;;5008012;28;20029;-69
2022/12/31 00:53:51;;;;;;;0.40;0.20;;;;;;;;;;5003747;28;20075;-69
2022/12/31 00:56:18;;;;;;;0.65;0.28;;;;;;;;;;5007055;28;20132;-69
2022/12/31 00:58:44;;;;;;;0.17;0.15;;;;;;;;;;5003727;28;20038;-69
2022/12/31 01:01:16;;;;;;;0.20;0.20;;;;;;;;;;5006958;28;20054;-69
2022/12/31 01:03:41;;;;;;;0.77;0.32;;;;;;;;;;4995568;28;20125;-70
2022/12/31 01:06:07;;;;;;;1.52;0.20;;;;;;;;;;5004482;28;20711;-69
2022/12/31 01:08:33;;;;;;;0.40;0.22;;;;;;;;;;5007876;28;20025;-69
2022/12/31 01:13:42;;;;;;;0.17;0.10;;;;;;;;;;5006318;28;20032;-69
2022/12/31 01:16:08;;;;;;;0.23;0.17;;;;;;;;;;5010885;28;20438;-69
2022/12/31 01:18:33;;;;;;;0.55;0.20;;;;;;;;;;5006582;28;20276;-69
2022/12/31 01:21:00;;;;;;;5.10;0.30;;;;;;;;;;5004139;28;20024;-69
2022/12/31 01:23:26;;;;;;;0.20;0.20;;;;;;;;;;5008609;28;20471;-69
2022/12/31 01:25:51;;;;;;;3.20;0.10;;;;;;;;;;5006428;28;20029;-69
2022/12/31 01:28:16;;;;;;;1.03;0.10;;;;;;;;;;5002192;28;20030;-69
2022/12/31 01:30:41;;;;;;;1.10;0.40;;;;;;;;;;5003650;28;20261;-69
2022/12/31 01:33:06;;;;;;;0.13;0.10;;;;;;;;;;5013646;28;20995;-69
2022/12/31 01:35:33;;;;;;;0.10;0.10;;;;;;;;;;5010374;28;20287;-69
2022/12/31 01:37:58;;;;;;;0.10;0.10;;;;;;;;;;5012520;28;20014;-69
2022/12/31 01:40:23;;;;;;;6.13;0.30;;;;;;;;;;4991797;28;20088;-69
2022/12/31 01:42:55;;;;;;;0.40;0.20;;;;;;;;;;5013330;28;20263;-69
2022/12/31 01:45:20;;;;;;;0.00;0.00;;;;;;;;;;5012858;28;20284;-69
2022/12/31 01:47:47;;;;;;;0.60;0.20;;;;;;;;;;5011740;28;20014;-69
2022/12/31 01:50:33;;;;;;;0.00;0.00;;;;;;;;;;5006543;28;20025;-69
2022/12/31 01:53:00;;;;;;;0.45;0.25;;;;;;;;;;5009639;28;20041;-69
2022/12/31 01:55:26;;;;;;;2.53;0.10;;;;;;;;;;5008561;28;20053;-69
2022/12/31 01:57:53;;;;;;;0.10;0.10;;;;;;;;;;5005316;28;20018;-69
2022/12/31 02:00:18;;;;;;;0.15;0.10;;;;;;;;;;5013371;28;20022;-69
2022/12/31 02:02:44;;;;;;;0.82;0.30;;;;;;;;;;5011393;28;20080;-69
2022/12/31 02:05:29;;;;;;;0.10;0.10;;;;;;;;;;5007251;28;20494;-69
2022/12/31 02:07:55;;;;;;;1.15;0.40;;;;;;;;;;5011933;28;20044;-69
2022/12/31 02:10:20;;;;;;;0.03;0.03;;;;;;;;;;5010047;28;20495;-69
2022/12/31 02:12:46;;;;;;;0.03;0.03;;;;;;;;;;5010091;28;20054;-69
2022/12/31 02:15:12;;;;;;;0.52;0.10;;;;;;;;;;5012945;28;20018;-69
2022/12/31 02:17:46;;;;;;;0.38;0.20;;;;;;;;;;5011901;28;20032;-69
2022/12/31 02:20:14;;;;;;;0.25;0.00;;;;;;;;;;5012943;28;20014;-69
2022/12/31 02:22:39;;;;;;;0.50;0.00;;;;;;;;;;5008034;28;20374;-69
2022/12/31 02:25:10;;;;;;;0.57;0.10;;;;;;;;;;5008025;28;20041;-69
2022/12/31 02:27:36;;;;;;;0.20;0.03;;;;;;;;;;5005219;28;21930;-69
2022/12/31 02:30:05;;;;;;;0.20;0.10;;;;;;;;;;5010550;28;20072;-69
2022/12/31 02:32:49;;;;;;;1.02;0.10;;;;;;;;;;5011087;28;20462;-69
2022/12/31 02:35:28;;;;;;;0.45;0.10;;;;;;;;;;5010806;28;20402;-69
2022/12/31 02:37:56;;;;;;;0.00;0.00;;;;;;;;;;5005838;28;20026;-69
2022/12/31 02:40:22;;;;;;;0.00;0.00;;;;;;;;;;5005103;28;20049;-69
2022/12/31 02:42:47;;;;;;;4.32;0.10;;;;;;;;;;4999211;28;20468;-69
2022/12/31 02:45:14;;;;;;;0.10;0.10;;;;;;;;;;5011988;28;20056;-69
2022/12/31 02:47:42;;;;;;;0.20;0.10;;;;;;;;;;5009650;28;20372;-69
2022/12/31 02:50:28;;;;;;;0.10;0.00;;;;;;;;;;5006167;28;20038;-69
2022/12/31 02:52:56;;;;;;;0.10;0.05;;;;;;;;;;5010864;28;20018;-69
2022/12/31 02:55:29;;;;;;;0.00;0.00;;;;;;;;;;5001060;28;20025;-69
2022/12/31 02:57:54;;;;;;;0.00;0.00;;;;;;;;;;5006373;28;20049;-69
2022/12/31 03:03:14;;;;;;;0.30;0.10;;;;;;;;;;4956284;28;20058;-69
2022/12/31 03:05:41;;;;;;;0.40;0.20;;;;;;;;;;5003835;28;20054;-69
2022/12/31 03:08:06;;;;;;;1.17;0.10;;;;;;;;;;5005783;28;20072;-69
2022/12/31 03:10:32;;;;;;;0.17;0.10;;;;;;;;;;5006084;28;20426;-69
2022/12/31 03:12:57;;;;;;;0.10;0.10;;;;;;;;;;5009147;28;20037;-69
2022/12/31 03:15:22;;;;;;;0.15;0.05;;;;;;;;;;5009707;28;20033;-69
2022/12/31 03:17:55;;;;;;;0.08;0.05;;;;;;;;;;5007414;28;20036;-69
2022/12/31 03:23:09;;;;;;;0.10;0.10;;;;;;;;;;5009272;28;20490;-69
2022/12/31 03:25:34;;;;;;;0.00;0.00;;;;;;;;;;5008051;28;20026;-69
2022/12/31 03:28:10;;;;;;;0.17;0.00;;;;;;;;;;5007178;28;20030;-69
2022/12/31 03:30:39;;;;;;;0.85;0.15;;;;;;;;;;5007415;28;20033;-69
2022/12/31 03:33:04;;;;;;;0.40;0.20;;;;;;;;;;4987835;28;20021;-69
2022/12/31 03:35:30;;;;;;;0.93;0.08;;;;;;;;;;5006845;28;20109;-69
2022/12/31 03:37:56;;;;;;;1.65;0.00;;;;;;;;;;5007675;28;20108;-69
2022/12/31 03:40:23;;;;;;;0.65;0.10;;;;;;;;;;5007790;28;20129;-69
2022/12/31 03:42:48;;;;;;;1.17;0.00;;;;;;;;;;5007726;28;20037;-69
2022/12/31 03:45:13;;;;;;;0.30;0.00;;;;;;;;;;5007016;28;20026;-69
2022/12/31 03:47:39;;;;;;;0.10;0.00;;;;;;;;;;5003760;28;20046;-69
2022/12/31 03:50:06;;;;;;;0.03;0.03;;;;;;;;;;5005631;28;20021;-69
2022/12/31 03:52:31;;;;;;;0.30;0.10;;;;;;;;;;5007377;28;20036;-69
2022/12/31 03:54:56;;;;;;;5.53;0.10;;;;;;;;;;4985582;28;20543;-69
2022/12/31 03:57:22;;;;;;;0.13;0.10;;;;;;;;;;5002271;28;20284;-69
2022/12/31 03:59:47;;;;;;;0.13;0.10;;;;;;;;;;5004221;28;20296;-69
2022/12/31 04:02:13;;;;;;;1.37;0.13;;;;;;;;;;5003783;28;20038;-69
2022/12/31 04:04:38;;;;;;;0.35;0.10;;;;;;;;;;5002324;28;20304;-69
2022/12/31 04:07:03;;;;;;;0.10;0.00;;;;;;;;;;5008434;28;20029;-69
2022/12/31 04:09:28;;;;;;;0.00;0.00;;;;;;;;;;5007722;28;20375;-69
2022/12/31 04:11:53;;;;;;;0.03;0.00;;;;;;;;;;5006034;28;20761;-69
2022/12/31 04:14:19;;;;;;;1.10;0.10;;;;;;;;;;5009927;28;20256;-69
2022/12/31 04:16:44;;;;;;;0.40;0.15;;;;;;;;;;4999544;28;20033;-69
2022/12/31 04:19:10;;;;;;;3.22;0.20;;;;;;;;;;5006209;28;20024;-69
2022/12/31 04:21:35;;;;;;;1.63;0.08;;;;;;;;;;5004689;28;20495;-69
2022/12/31 04:24:01;;;;;;;1.50;0.17;;;;;;;;;;5009747;28;20026;-69
2022/12/31 04:26:26;;;;;;;0.47;0.25;;;;;;;;;;5006974;28;20273;-69
2022/12/31 04:28:51;;;;;;;0.10;0.00;;;;;;;;;;5004032;28;20029;-69
2022/12/31 04:31:17;;;;;;;0.00;0.00;;;;;;;;;;5003345;28;20272;-69
2022/12/31 04:33:42;;;;;;;0.38;0.10;;;;;;;;;;5002360;28;20324;-69
2022/12/31 04:36:07;;;;;;;0.40;0.10;;;;;;;;;;5003377;28;20084;-69
2022/12/31 04:38:33;;;;;;;2.50;0.15;;;;;;;;;;4998364;28;20316;-69
2022/12/31 04:41:16;;;;;;;0.00;0.00;;;;;;;;;;5001229;28;20057;-69
2022/12/31 04:43:55;;;;;;;0.50;0.10;;;;;;;;;;5006671;28;20017;-69
2022/12/31 04:46:24;;;;;;;0.10;0.10;;;;;;;;;;5006758;28;20032;-69
2022/12/31 04:48:49;;;;;;;0.10;0.00;;;;;;;;;;5008035;28;20077;-69
2022/12/31 04:51:15;;;;;;;1.10;0.10;;;;;;;;;;5001420;28;20030;-69
2022/12/31 04:53:40;;;;;;;0.63;0.20;;;;;;;;;;5004613;28;20030;-69
2022/12/31 04:56:06;;;;;;;0.10;0.00;;;;;;;;;;5004459;28;20281;-69
2022/12/31 04:58:31;;;;;;;0.10;0.10;;;;;;;;;;5007467;28;20040;-69
2022/12/31 05:00:57;;;;;;;2.45;0.20;;;;;;;;;;5003133;28;20026;-69
2022/12/31 05:03:22;;;;;;;0.13;0.10;;;;;;;;;;5001531;28;20049;-69
2022/12/31 05:05:48;;;;;;;0.77;0.20;;;;;;;;;;4999789;28;20657;-69
2022/12/31 05:08:14;;;;;;;0.25;0.00;;;;;;;;;;5002189;28;20044;-69
2022/12/31 05:10:40;;;;;;;4.00;0.10;;;;;;;;;;5001719;28;20478;-69
2022/12/31 05:13:05;;;;;;;0.95;0.20;;;;;;;;;;5004542;28;20076;-69
2022/12/31 05:15:31;;;;;;;1.13;0.50;;;;;;;;;;5005113;28;20022;-69
2022/12/31 05:17:56;;;;;;;3.22;0.30;;;;;;;;;;5001795;28;20273;-69
2022/12/31 05:20:21;;;;;;;0.23;0.13;;;;;;;;;;5007043;28;20038;-68
2022/12/31 05:22:46;;;;;;;0.27;0.20;;;;;;;;;;5008909;28;20346;-68
2022/12/31 05:25:11;;;;;;;0.22;0.20;;;;;;;;;;5005230;28;20292;-68
2022/12/31 05:27:37;;;;;;;2.47;0.20;;;;;;;;;;5004003;28;20025;-68
2022/12/31 05:30:03;;;;;;;1.27;0.35;;;;;;;;;;5008086;28;20264;-68
2022/12/31 05:32:28;;;;;;;0.47;0.10;;;;;;;;;;5001051;28;20021;-68
2022/12/31 05:34:53;;;;;;;1.50;0.20;;;;;;;;;;5002219;28;20024;-68
2022/12/31 05:37:18;;;;;;;9.33;0.40;;;;;;;;;;5004646;28;20061;-68
2022/12/31 05:39:43;;;;;;;1.03;0.17;;;;;;;;;;5009306;28;20283;-68
2022/12/31 05:42:09;;;;;;;1.33;0.50;;;;;;;;;;5008158;28;20281;-68
2022/12/31 05:44:34;;;;;;;0.23;0.13;;;;;;;;;;5007002;28;20300;-68
2022/12/31 05:46:59;;;;;;;5.33;0.70;;;;;;;;;;5004024;28;20638;-68
2022/12/31 05:49:24;;;;;;;0.93;0.30;;;;;;;;;;5001590;28;20276;-68
2022/12/31 05:51:49;;;;;;;1.30;0.33;;;;;;;;;;5005236;28;20323;-68
2022/12/31 05:54:14;;;;;;;2.63;0.50;;;;;;;;;;5002534;28;20594;-68
2022/12/31 05:56:40;;;;;;;5.10;0.20;;;;;;;;;;5007200;28;20292;-68
2022/12/31 05:59:05;;;;;;;0.82;0.28;;;;;;;;;;5009340;28;20257;-68
2022/12/31 06:01:30;;;;;;;2.57;1.60;;;;;;;;;;5008613;28;20030;-68
2022/12/31 06:03:55;;;;;;;2.63;0.50;;;;;;;;;;5005337;28;20261;-68
2022/12/31 06:06:20;;;;;;;5.03;0.53;;;;;;;;;;4999948;28;20116;-68
2022/12/31 06:08:49;;;;;;;3.55;0.77;;;;;;;;;;5005885;28;20260;-68
2022/12/31 06:11:14;;;;;;;2.45;0.80;;;;;;;;;;5006778;28;20030;-69
2022/12/31 06:13:39;;;;;;;1.63;0.47;;;;;;;;;;5010037;28;20032;-68
2022/12/31 06:16:07;;;;;;;0.40;0.20;;;;;;;;;;5010202;28;20285;-68
2022/12/31 06:18:32;;;;;;;1.20;0.40;;;;;;;;;;5008003;28;20768;-69
2022/12/31 06:20:57;;;;;;;1.63;0.20;;;;;;;;;;5009649;28;20029;-69
2022/12/31 06:23:22;;;;;;;0.50;0.10;;;;;;;;;;5015445;28;20026;-69
2022/12/31 06:25:48;;;;;;;3.87;0.30;;;;;;;;;;5011381;28;20056;-69
2022/12/31 06:28:13;;;;;;;1.83;0.50;;;;;;;;;;5009024;28;20843;-69
2022/12/31 06:30:38;;;;;;;0.35;0.20;;;;;;;;;;5002677;28;20268;-69
2022/12/31 06:33:03;;;;;;;1.57;0.23;;;;;;;;;;5006545;28;20030;-69
2022/12/31 06:35:28;;;;;;;5.73;0.50;;;;;;;;;;5016573;23;20316;-89
2022/12/31 06:37:54;;;;;;;0.88;0.20;;;;;;;;;;5007224;28;20097;-89
2022/12/31 06:40:19;;;;;;;5.78;1.40;;;;;;;;;;5010235;28;20030;-89
2022/12/31 06:42:44;;;;;;;2.38;0.30;;;;;;;;;;4996510;28;20431;-88
2022/12/31 06:45:10;;;;;;;1.15;0.30;;;;;;;;;;4992262;28;20472;-86
2022/12/31 06:47:35;;;;;;;0.52;0.30;;;;;;;;;;4991075;28;20503;-90
2022/12/31 06:50:01;;;;;;;0.00;0.00;;;;;;;;;;4992407;28;20020;-86
2022/12/31 06:52:27;;;;;;;2.30;0.60;;;;;;;;;;4991351;28;20018;-90
2022/12/31 06:54:55;;;;;;;3.05;0.47;;;;;;;;;;5012868;28;20026;-90
2022/12/31 06:57:22;;;;;;;3.88;0.32;;;;;;;;;;4989016;28;20028;-89
2022/12/31 06:59:47;;;;;;;2.33;0.32;;;;;;;;;;5007964;28;20069;-92
2022/12/31 07:02:32;;;;;;;1.13;0.55;;;;;;;;;;4992144;28;20029;-87
2022/12/31 07:05:13;;;;;;;6.15;0.77;;;;;;;;;;5007996;28;20069;-91
2022/12/31 07:07:56;;;;;;;3.72;0.40;;;;;;;;;;4989132;28;20033;-88
2022/12/31 07:10:41;;;;;;;5.03;0.50;;;;;;;;;;5007628;28;20021;-88
2022/12/31 07:13:22;;;;;;;3.50;1.27;;;;;;;;;;5007462;28;20052;-92
2022/12/31 07:16:06;;;;;;;0.40;0.13;;;;;;;;;;5004765;28;20010;-86
2022/12/31 07:19:38;;;;;;;8.18;0.70;;;;;;;;;;5010581;28;20030;-91
2022/12/31 07:21:39;;;;;;;5.60;0.45;;;;;;;;;;4998095;28;20450;-89
2022/12/31 07:24:05;;;;;;;3.33;0.40;;;;;;;;;;5008095;28;20022;-91
2022/12/31 07:26:50;;;;;;;3.88;0.20;;;;;;;;;;4990785;28;20033;-87
2022/12/31 07:29:24;;;;;;;10.40;1.90;;;;;;;;;;5013250;28;20502;-88
2022/12/31 07:31:59;;;;;;;0.98;0.60;;;;;;;;;;5010887;28;20034;-90
2022/12/31 07:34:25;;;;;;;0.20;0.20;;;;;;;;;;4992517;28;20032;-88
2022/12/31 07:37:07;;;;;;;3.38;0.60;;;;;;;;;;4993904;28;20112;-89
2022/12/31 07:39:42;;;;;;;2.15;0.30;;;;;;;;;;5007603;28;20025;-89
2022/12/31 07:42:18;;;;;;;6.20;0.52;;;;;;;;;;5013888;28;20056;-91
2022/12/31 07:44:52;;;;;;;0.55;0.20;;;;;;;;;;4997153;28;20630;-89
2022/12/31 07:47:21;;;;;;;1.35;0.20;;;;;;;;;;5006053;28;20049;-90
2022/12/31 07:49:46;;;;;;;3.17;0.75;;;;;;;;;;4998497;28;20065;-89
2022/12/31 07:52:11;;;;;;;1.70;0.45;;;;;;;;;;5009773;28;20033;-88
2022/12/31 07:54:37;;;;;;;0.85;0.20;;;;;;;;;;5013585;28;20032;-87
2022/12/31 07:57:04;;;;;;;1.37;0.50;;;;;;;;;;5008565;28;20021;-90
2022/12/31 07:59:39;;;;;;;2.22;0.40;;;;;;;;;;5007139;28;20765;-89
2022/12/31 08:02:20;;;;;;;2.10;0.40;;;;;;;;;;4999052;28;20033;-90
2022/12/31 08:04:51;;;;;;;0.65;0.20;;;;;;;;;;5014500;28;20153;-88
2022/12/31 08:07:19;;;;;;;0.90;0.40;;;;;;;;;;4987400;28;20022;-89
2022/12/31 08:09:55;;;;;;;2.53;0.40;;;;;;;;;;5006413;28;20030;-92
2022/12/31 08:12:21;;;;;;;3.58;0.60;;;;;;;;;;4988072;28;20030;-88
2022/12/31 08:14:47;;;;;;;0.95;0.30;;;;;;;;;;4989044;28;20045;-90
2022/12/31 08:17:16;;;;;;;2.35;0.63;;;;;;;;;;4989388;28;20034;-89
2022/12/31 08:20:02;;;;;;;0.88;0.20;;;;;;;;;;5004751;28;20092;-91
2022/12/31 08:22:37;;;;;;;1.02;0.30;;;;;;;;;;5004762;28;20026;-87
2022/12/31 08:25:17;;;;;;;1.63;0.30;;;;;;;;;;5006159;28;20026;-89
2022/12/31 08:28:02;;;;;;;0.85;0.20;;;;;;;;;;4993080;28;20641;-89
2022/12/31 08:30:35;;;;;;;3.13;0.30;;;;;;;;;;5005763;28;20037;-86
2022/12/31 08:33:08;;;;;;;2.17;0.43;;;;;;;;;;4990188;28;20026;-88
2022/12/31 08:36:11;;;;;;;1.67;0.55;;;;;;;;;;4985288;28;20030;-90
2022/12/31 08:38:39;;;;;;;3.55;0.50;;;;;;;;;;4989419;28;20495;-91
2022/12/31 08:41:36;;;;;;;;;;;;;;;;;;;;;
2022/12/31 08:44:10;;;;;;;1.05;0.40;;;;;;;;;;5000872;28;20034;-91
2022/12/31 08:46:39;;;;;;;2.92;0.40;;;;;;;;;;5008060;28;20033;-87
2022/12/31 08:49:04;;;;;;;5.13;0.55;;;;;;;;;;5004509;28;20157;-87
2022/12/31 08:51:29;;;;;;;2.60;1.25;;;;;;;;;;5010005;28;20537;-90
2022/12/31 08:53:55;;;;;;;3.63;1.10;;;;;;;;;;4987896;28;20026;-88
2022/12/31 08:56:27;;;;;;;4.93;0.90;;;;;;;;;;5009206;28;20064;-89
2022/12/31 08:59:11;;;;;;;2.17;0.57;;;;;;;;;;4986970;28;20573;-88
2022/12/31 09:01:44;;;;;;;0.98;0.40;;;;;;;;;;4989410;28;20052;-90
2022/12/31 09:04:09;;;;;;;8.10;0.82;;;;;;;;;;4990614;28;20049;-87
2022/12/31 09:06:36;;;;;;;10.95;0.90;;;;;;;;;;4990689;28;20491;-87
2022/12/31 09:09:12;;;;;;;4.50;1.15;;;;;;;;;;5008624;28;20018;-88
2022/12/31 09:11:40;;;;;;;1.40;0.57;;;;;;;;;;4990473;28;20036;-89
2022/12/31 09:14:20;;;;;;;3.10;0.50;;;;;;;;;;5007599;28;20034;-90
2022/12/31 09:17:03;;;;;;;9.10;0.68;;;;;;;;;;5007450;28;20021;-88
2022/12/31 09:19:55;;;;;;;1.55;0.40;;;;;;;;;;4983536;28;20027;-91
2022/12/31 09:22:28;;;;;;;1.30;0.52;;;;;;;;;;4965481;28;20026;-89
2022/12/31 09:24:53;;;;;;;6.45;0.55;;;;;;;;;;5007444;28;20057;-91
2022/12/31 09:27:51;;;;;;;2.67;0.73;;;;;;;;;;5004860;28;20029;-91
2022/12/31 09:30:17;;;;;;;1.58;0.60;;;;;;;;;;4952876;28;20030;-89
2022/12/31 09:32:54;;;;;;;2.67;0.77;;;;;;;;;;4994204;28;20506;-91
2022/12/31 09:37:53;;;;;;;3.40;0.50;;;;;;;;;;5009180;28;20121;-69
2022/12/31 09:40:38;;;;;;;1.20;0.60;;;;;;;;;;5010941;28;20109;-68
2022/12/31 09:43:03;;;;;;;5.15;1.15;;;;;;;;;;5009590;28;20014;-68
2022/12/31 09:45:34;;;;;;;1.33;0.50;;;;;;;;;;5011576;28;20040;-68
2022/12/31 09:47:59;;;;;;;5.57;0.70;;;;;;;;;;5011195;28;20029;-69
2022/12/31 09:50:33;;;;;;;2.90;0.70;;;;;;;;;;5009498;28;20022;-68
2022/12/31 09:53:17;;;;;;;2.88;0.82;;;;;;;;;;5012534;28;20641;-68
2022/12/31 09:55:55;;;;;;;3.08;0.65;;;;;;;;;;5005820;28;20018;-68
2022/12/31 09:58:26;;;;;;;2.85;0.80;;;;;;;;;;5013688;28;20018;-68
2022/12/31 10:01:12;;;;;;;4.28;1.23;;;;;;;;;;5010253;28;20033;-70
2022/12/31 10:03:55;;;;;;;5.80;0.45;;;;;;;;;;4990206;28;20069;-71
2022/12/31 10:06:24;;;;;;;1.80;0.60;;;;;;;;;;5008312;28;20053;-70
2022/12/31 10:08:55;;;;;;;3.28;0.82;;;;;;;;;;5012136;28;20501;-68
2022/12/31 10:11:39;;;;;;;4.28;0.60;;;;;;;;;;5005809;28;20030;-70
2022/12/31 10:14:10;;;;;;;3.40;0.40;;;;;;;;;;5006227;28;20097;-68
2022/12/31 10:16:45;;;;;;;1.33;0.57;;;;;;;;;;5007779;28;20030;-68
2022/12/31 10:19:13;;;;;;;1.25;0.50;;;;;;;;;;4988913;28;20331;-68
2022/12/31 10:21:57;;;;;;;1.88;0.32;;;;;;;;;;5010126;28;20026;-68
2022/12/31 10:24:41;;;;;;;6.00;0.70;;;;;;;;;;5007450;28;20026;-68
2022/12/31 10:27:35;;;;;;;6.55;0.75;;;;;;;;;;5005144;28;20064;-69
2022/12/31 10:30:10;;;;;;;6.88;0.82;;;;;;;;;;4935104;28;20087;-68
2022/12/31 10:32:41;;;;;;;4.35;0.75;;;;;;;;;;5003958;28;20520;-67
2022/12/31 10:35:42;;;;;;;6.82;1.20;;;;;;;;;;5001429;28;20034;-68
2022/12/31 10:38:18;;;;;;;6.50;0.98;;;;;;;;;;4912586;29;20071;-68
2022/12/31 10:40:44;;;;;;;4.25;0.88;;;;;;;;;;4995499;28;20367;-69
2022/12/31 10:43:24;;;;;;;1.40;0.60;;;;;;;;;;5003657;28;20033;-67
2022/12/31 10:46:08;;;;;;;7.07;1.30;;;;;;;;;;4990041;28;20269;-68
2022/12/31 10:48:33;;;;;;;1.30;0.47;;;;;;;;;;5002665;28;20024;-69
2022/12/31 10:50:58;;;;;;;1.20;0.43;;;;;;;;;;5005559;28;20034;-68
2022/12/31 10:53:23;;;;;;;4.80;0.87;;;;;;;;;;5007994;28;20474;-68
2022/12/31 10:55:49;;;;;;;2.80;0.70;;;;;;;;;;5005494;28;20026;-70
2022/12/31 10:58:23;;;;;;;4.70;0.90;;;;;;;;;;5008259;28;20493;-68
2022/12/31 11:00:57;;;;;;;3.72;0.65;;;;;;;;;;5008594;28;20032;-68
2022/12/31 11:03:38;;;;;;;4.30;1.00;;;;;;;;;;5007763;28;20025;-68
2022/12/31 11:06:12;;;;;;;1.00;0.52;;;;;;;;;;5003747;28;20338;-67
2022/12/31 11:08:37;;;;;;;4.80;0.47;;;;;;;;;;5006819;28;20022;-69
2022/12/31 11:11:02;;;;;;;3.63;0.60;;;;;;;;;;5006720;28;20386;-69
2022/12/31 11:13:39;;;;;;;1.80;0.60;;;;;;;;;;5007789;28;20117;-68
2022/12/31 11:16:10;;;;;;;4.32;1.02;;;;;;;;;;5004569;28;20272;-69
2022/12/31 11:18:54;;;;;;;1.40;0.80;;;;;;;;;;5005908;28;20061;-69
2022/12/31 11:21:38;;;;;;;8.60;1.10;;;;;;;;;;5005019;28;20548;-69
2022/12/31 11:24:32;;;;;;;3.00;1.00;;;;;;;;;;5005617;28;20041;-68
2022/12/31 11:27:05;;;;;;;2.30;0.40;;;;;;;;;;4920135;28;20036;-71
2022/12/31 11:29:39;;;;;;;2.35;0.80;;;;;;;;;;5006058;28;20021;-69
2022/12/31 11:32:27;;;;;;;2.28;0.63;;;;;;;;;;5001591;28;20021;-68
2022/12/31 11:35:10;;;;;;;6.95;0.90;;;;;;;;;;5005766;28;20033;-68
2022/12/31 11:37:36;;;;;;;1.50;0.60;;;;;;;;;;4989547;28;20026;-67
2022/12/31 11:40:01;;;;;;;4.28;0.85;;;;;;;;;;5005683;28;20036;-67
2022/12/31 11:42:36;;;;;;;2.67;0.67;;;;;;;;;;5001755;28;20026;-67
2022/12/31 11:45:10;;;;;;;5.82;1.20;;;;;;;;;;5008351;28;20060;-67
2022/12/31 11:47:41;;;;;;;4.05;0.98;;;;;;;;;;5008574;28;20022;-68
2022/12/31 11:50:25;;;;;;;2.05;0.52;;;;;;;;;;5003553;28;20032;-67
2022/12/31 11:52:55;;;;;;;3.70;0.65;;;;;;;;;;5006811;28;20029;-68
2022/12/31 11:55:52;;;;;;;2.22;0.82;;;;;;;;;;4988930;28;20076;-68
2022/12/31 11:58:19;;;;;;;6.55;0.82;;;;;;;;;;4949395;28;20034;-69
2022/12/31 12:01:03;;;;;;;4.03;0.88;;;;;;;;;;5005133;28;20463;-68
2022/12/31 12:03:29;;;;;;;1.08;0.60;;;;;;;;;;5007487;28;20026;-69
2022/12/31 12:05:55;;;;;;;2.20;0.55;;;;;;;;;;5052100;23;20046;-69
2022/12/31 12:08:21;;;;;;;3.75;0.73;;;;;;;;;;4989030;28;20298;-68
2022/12/31 12:10:48;;;;;;;4.05;1.00;;;;;;;;;;5001166;28;20029;-69
2022/12/31 12:13:24;;;;;;;0.98;0.43;;;;;;;;;;5007218;28;20065;-69
2022/12/31 12:16:07;;;;;;;7.25;0.75;;;;;;;;;;5008016;28;20022;-69
2022/12/31 12:18:46;;;;;;;2.08;0.60;;;;;;;;;;5003819;28;20096;-68
2022/12/31 12:21:22;;;;;;;4.53;1.58;;;;;;;;;;5005971;28;20466;-68
2022/12/31 12:24:04;;;;;;;2.05;0.63;;;;;;;;;;5002374;28;20025;-68
2022/12/31 12:26:32;;;;;;;8.02;1.08;;;;;;;;;;5006333;28;20164;-69
2022/12/31 12:28:59;;;;;;;7.13;0.50;;;;;;;;;;5005751;28;20014;-69
2022/12/31 12:31:25;;;;;;;1.30;0.40;;;;;;;;;;5008257;28;20030;-68
2022/12/31 12:33:51;;;;;;;8.40;2.88;;;;;;;;;;5005496;28;20096;-68
2022/12/31 12:36:17;;;;;;;6.82;1.17;;;;;;;;;;5013112;23;20490;-70
2022/12/31 12:38:43;;;;;;;4.63;1.33;;;;;;;;;;4969587;28;20042;-70
2022/12/31 12:41:18;;;;;;;8.38;1.33;;;;;;;;;;4980497;28;20030;-70
2022/12/31 12:43:43;;;;;;;13.63;0.82;;;;;;;;;;4984715;28;20029;-71
2022/12/31 12:46:41;;;;;;;2.30;0.93;;;;;;;;;;4959197;28;20019;-71
2022/12/31 12:49:07;;;;;;;3.50;0.80;;;;;;;;;;4913074;28;20693;-71
2022/12/31 12:51:40;;;;;;;2.38;0.63;;;;;;;;;;4968983;28;20022;-70
2022/12/31 12:54:05;;;;;;;2.90;0.88;;;;;;;;;;4963478;28;20034;-70
2022/12/31 12:56:38;;;;;;;4.07;1.10;;;;;;;;;;4970869;28;20399;-70
2022/12/31 12:59:26;;;;;;;10.30;1.00;;;;;;;;;;4967227;28;20278;-70
2022/12/31 13:02:03;;;;;;;0.98;0.75;;;;;;;;;;4967406;28;20143;-71
2022/12/31 13:04:31;;;;;;;2.00;0.60;;;;;;;;;;4965624;28;20058;-71
2022/12/31 13:07:06;;;;;;;10.10;0.85;;;;;;;;;;4966054;28;20019;-71
2022/12/31 13:09:43;;;;;;;2.50;0.82;;;;;;;;;;4968097;28;20394;-71
2022/12/31 13:12:08;;;;;;;3.85;0.82;;;;;;;;;;4966771;28;20399;-71
2022/12/31 13:14:45;;;;;;;4.63;0.93;;;;;;;;;;4973034;28;20018;-71
2022/12/31 13:17:26;;;;;;;1.85;0.70;;;;;;;;;;4972437;28;20030;-71
2022/12/31 13:20:09;;;;;;;1.88;0.50;;;;;;;;;;4971322;28;20109;-71
2022/12/31 13:22:42;;;;;;;4.55;0.88;;;;;;;;;;4970677;28;20019;-71
2022/12/31 13:25:27;;;;;;;5.45;1.02;;;;;;;;;;4971397;28;20035;-71
2022/12/31 13:27:55;;;;;;;5.75;1.00;;;;;;;;;;4963635;28;20042;-71
2022/12/31 13:30:22;;;;;;;8.00;1.27;;;;;;;;;;4971477;28;20027;-71
2022/12/31 13:32:54;;;;;;;4.25;0.90;;;;;;;;;;4968842;28;20071;-71
2022/12/31 13:35:32;;;;;;;2.97;0.68;;;;;;;;;;4969895;28;20023;-71
2022/12/31 13:38:05;;;;;;;8.93;1.00;;;;;;;;;;4972405;28;20380;-71
2022/12/31 13:40:53;;;;;;;2.75;0.93;;;;;;;;;;4967783;28;20015;-71
2022/12/31 13:43:30;;;;;;;4.22;1.05;;;;;;;;;;4971059;28;20050;-71
2022/12/31 13:46:16;;;;;;;2.65;0.65;;;;;;;;;;4968057;28;20090;-71
2022/12/31 13:48:47;;;;;;;5.63;1.27;;;;;;;;;;4960435;28;20439;-70
2022/12/31 13:51:31;;;;;;;7.82;1.10;;;;;;;;;;4971623;28;20086;-71
2022/12/31 13:54:00;;;;;;;5.63;0.90;;;;;;;;;;4970832;28;20058;-71
2022/12/31 13:56:28;;;;;;;9.38;1.40;;;;;;;;;;4971284;28;20029;-71
2022/12/31 13:58:56;;;;;;;5.25;1.13;;;;;;;;;;4967326;28;20022;-71
2022/12/31 14:01:27;;;;;;;4.78;1.33;;;;;;;;;;4971817;28;20054;-71
2022/12/31 14:04:06;;;;;;;3.83;0.63;;;;;;;;;;4968561;28;20018;-71
2022/12/31 14:06:35;;;;;;;3.13;0.90;;;;;;;;;;4963263;28;20035;-71
2022/12/31 14:09:00;;;;;;;5.95;1.55;;;;;;;;;;4965414;28;20475;-71
2022/12/31 14:11:40;;;;;;;1.83;0.70;;;;;;;;;;4970534;28;20027;-71
2022/12/31 14:14:05;;;;;;;5.18;0.88;;;;;;;;;;4965456;28;20098;-71
2022/12/31 14:16:45;;;;;;;2.20;1.27;;;;;;;;;;4970662;28;20114;-71
2022/12/31 14:19:10;;;;;;;;;;;;;;;;;;4969716;28;20063;-71
2022/12/31 14:21:44;;;;;;;2.10;0.82;;;;;;;;;;4972610;28;20378;-71
2022/12/31 14:24:09;;;;;;;8.43;1.70;;;;;;;;;;4969301;28;20491;-71
2022/12/31 14:26:37;;;;;;;5.47;1.75;;;;;;;;;;4969038;28;20029;-71
2022/12/31 14:29:09;;;;;;;2.78;0.90;;;;;;;;;;4969252;28;20026;-71
2022/12/31 14:31:39;;;;;;;4.10;1.33;;;;;;;;;;4970713;28;20378;-71
2022/12/31 14:34:25;;;;;;;7.35;1.65;;;;;;;;;;4973231;28;20699;-71
2022/12/31 14:37:08;;;;;;;7.60;1.50;;;;;;;;;;4951053;28;20153;-71
2022/12/31 14:39:50;;;;;;;2.92;1.00;;;;;;;;;;4964180;28;20023;-71
2022/12/31 14:42:27;;;;;;;2.90;1.67;;;;;;;;;;4971361;28;20027;-71
2022/12/31 14:44:58;;;;;;;8.38;1.90;;;;;;;;;;4967473;28;20114;-71
2022/12/31 14:47:35;;;;;;;7.75;1.63;;;;;;;;;;4971495;28;20015;-71
2022/12/31 14:50:14;;;;;;;10.32;1.80;;;;;;;;;;4969056;28;20513;-71
2022/12/31 14:52:53;;;;;;;3.27;1.03;;;;;;;;;;4967897;28;20435;-71
2022/12/31 14:55:21;;;;;;;5.85;1.40;;;;;;;;;;4971408;28;20807;-71
2022/12/31 14:57:47;;;;;;;6.50;1.80;;;;;;;;;;4970372;28;20026;-71
2022/12/31 15:00:24;;;;;;;8.73;1.75;;;;;;;;;;4970323;28;20031;-71
2022/12/31 15:02:50;;;;;;;6.22;1.50;;;;;;;;;;4970792;28;20022;-71
2022/12/31 15:05:24;;;;;;;3.17;1.30;;;;;;;;;;4954700;28;20022;-71
2022/12/31 15:07:57;;;;;;;5.03;1.23;;;;;;;;;;4971332;28;20023;-71
2022/12/31 15:10:41;;;;;;;4.35;1.65;;;;;;;;;;4972371;28;20018;-71
2022/12/31 15:13:18;;;;;;;3.22;1.10;;;;;;;;;;4968941;28;20026;-71
2022/12/31 15:16:08;;;;;;;10.05;2.40;;;;;;;;;;4951518;28;20030;-71